Kapuskasing, Canada
Current Conditions -  °F | °C
As of 2:29 AM on Sunday 23 Nov 2014 (Local Time) from CYYU Reporting Station
Overcast Overcast  
Wind Chill: 14°   Ceiling: 800
Heat Index: 23°   Visibility: 12mi
Dew Point: 19°   Wind: 8mph
Humidity: 86%   Direction: 100°E
Pressure: 29.78"   Gusts: NA
Location:  49.42°N, 82.43°W
Report Text: CYYU 230729Z 10007KT 12SM OVC008 M05/M07 A2978 RMK SF8 SLP098
Loading
Personal Weather Stations






























Interactive Weather Map New forecast layout! Learn more

10-Day Weather Forecast

Advertisements
Track Severe Weather on mobile